createdAt,value
2023-03-24T00:00:35.986Z,9.61
2023-03-24T00:03:57.690Z,9.71
2023-03-24T00:08:02.360Z,9.64
2023-03-24T00:11:34.533Z,9.64
2023-03-24T00:14:41.704Z,9.60
2023-03-24T00:18:00.189Z,9.55
2023-03-24T00:21:56.337Z,9.53
2023-03-24T00:25:24.485Z,9.48
2023-03-24T00:28:37.586Z,9.40
2023-03-24T00:31:41.579Z,9.42
2023-03-24T00:38:36.532Z,9.36
2023-03-24T00:41:40.011Z,9.33
2023-03-24T00:44:45.079Z,9.29
2023-03-24T00:48:06.533Z,9.25
2023-03-24T00:51:20.081Z,9.29
2023-03-24T00:54:41.690Z,9.22
2023-03-24T00:57:56.396Z,9.12
2023-03-24T01:05:02.577Z,9.11
2023-03-24T01:08:34.448Z,9.09
2023-03-24T01:11:44.113Z,9.08
2023-03-24T01:14:53.408Z,9.08
2023-03-24T01:18:05.810Z,9.04
2023-03-24T01:22:17.000Z,9.04
2023-03-24T01:25:45.537Z,8.94
2023-03-24T01:29:12.761Z,8.96
2023-03-24T01:32:50.129Z,8.87
2023-03-24T01:35:56.685Z,8.83
2023-03-24T01:39:18.173Z,8.79
2023-03-24T01:42:36.278Z,8.72
2023-03-24T01:45:42.431Z,8.64
2023-03-24T01:49:21.056Z,8.60
2023-03-24T01:52:39.660Z,8.56
2023-03-24T01:56:01.519Z,8.61
2023-03-24T01:59:36.393Z,8.56
2023-03-24T02:03:02.000Z,8.57
2023-03-24T02:07:13.316Z,8.39
2023-03-24T02:10:38.750Z,8.43
2023-03-24T02:14:07.661Z,8.41
2023-03-24T02:17:30.407Z,8.35
2023-03-24T02:20:58.234Z,8.28
2023-03-24T02:24:52.737Z,8.42
2023-03-24T02:29:36.333Z,8.35
2023-03-24T02:33:51.464Z,8.30
2023-03-24T02:37:36.404Z,8.17
2023-03-24T02:46:14.176Z,8.13
2023-03-24T02:50:20.280Z,8.03
2023-03-24T02:58:32.160Z,7.81
2023-03-24T03:02:34.515Z,7.86
2023-03-24T03:06:19.616Z,7.83
2023-03-24T03:09:53.673Z,7.79
2023-03-24T03:13:53.370Z,7.82
2023-03-24T03:17:25.697Z,7.88
2023-03-24T03:24:58.884Z,7.78
2023-03-24T03:37:19.704Z,7.52
2023-03-24T03:40:59.601Z,7.38
2023-03-24T03:48:26.376Z,7.29
2023-03-24T03:57:05.804Z,7.17
2023-03-24T04:01:04.687Z,7.11
2023-03-24T04:05:14.435Z,7.11
2023-03-24T04:09:14.179Z,6.97
2023-03-24T04:13:16.882Z,7.01
2023-03-24T04:18:02.738Z,7.23
2023-03-24T04:22:54.948Z,7.26
2023-03-24T04:32:01.226Z,7.32
2023-03-24T04:35:59.303Z,7.17
2023-03-24T04:40:18.411Z,7.09
2023-03-24T04:43:40.345Z,7.05
2023-03-24T04:47:27.337Z,6.94
2023-03-24T04:54:52.555Z,6.91
2023-03-24T04:59:10.748Z,6.91
2023-03-24T05:06:57.244Z,7.04
2023-03-24T05:10:22.233Z,6.99
2023-03-24T05:14:39.651Z,7.07
2023-03-24T05:17:53.190Z,7.23
2023-03-24T05:21:34.569Z,7.35
2023-03-24T05:25:16.366Z,7.42
2023-03-24T05:29:21.038Z,7.70
2023-03-24T05:32:24.750Z,7.79
2023-03-24T05:36:23.898Z,8.08
2023-03-24T05:40:10.419Z,8.53
2023-03-24T05:44:51.169Z,9.15
2023-03-24T05:49:18.720Z,9.62
2023-03-24T05:52:41.318Z,9.85
2023-03-24T05:56:29.183Z,10.57
2023-03-24T06:00:09.749Z,11.25
2023-03-24T06:27:13.388Z,12.73
2023-03-24T06:39:39.302Z,13.57
2023-03-24T06:44:16.715Z,13.53
2023-03-24T06:47:20.703Z,13.67
2023-03-24T06:51:39.399Z,13.78
2023-03-24T06:55:22.587Z,14.06
2023-03-24T06:58:45.428Z,14.27
2023-03-24T07:03:22.292Z,14.38
2023-03-24T07:16:00.792Z,15.12
2023-03-24T07:23:53.717Z,15.38
2023-03-24T07:33:12.837Z,15.87
2023-03-24T07:37:12.379Z,16.00
2023-03-24T07:41:30.892Z,16.31
2023-03-24T07:49:33.825Z,16.75
2023-03-24T07:53:34.194Z,17.10
2023-03-24T07:57:51.693Z,17.16
2023-03-24T08:06:23.850Z,17.22
2023-03-24T08:10:24.971Z,17.22
2023-03-24T08:22:39.567Z,17.58
2023-03-24T08:25:43.082Z,17.33
2023-03-24T08:33:00.956Z,17.34
2023-03-24T08:37:20.289Z,18.04
2023-03-24T08:40:44.490Z,17.80
2023-03-24T08:53:18.328Z,19.10
2023-03-24T08:57:36.868Z,19.56
2023-03-24T09:00:41.874Z,19.38
2023-03-24T09:05:00.731Z,19.25
2023-03-24T09:08:22.979Z,19.39
2023-03-24T09:12:23.154Z,19.88
2023-03-24T09:24:04.383Z,19.77
2023-03-24T09:27:26.583Z,19.85
2023-03-24T09:31:26.675Z,19.65
2023-03-24T09:35:09.085Z,19.77
2023-03-24T09:42:24.555Z,19.17
2023-03-24T09:55:24.854Z,19.89
2023-03-24T09:59:08.137Z,20.45
2023-03-24T10:02:41.599Z,21.00
2023-03-24T10:06:44.269Z,21.67
2023-03-24T10:10:15.231Z,22.11
2023-03-24T10:14:14.040Z,22.79
2023-03-24T10:26:59.487Z,22.05
2023-03-24T10:30:59.161Z,22.66
2023-03-24T10:38:03.089Z,23.12
2023-03-24T10:41:51.495Z,22.87
2023-03-24T10:53:41.505Z,23.56
2023-03-24T10:57:42.135Z,23.81
2023-03-24T11:02:00.469Z,24.06
2023-03-24T11:15:50.006Z,24.84
2023-03-24T11:36:05.109Z,23.59
2023-03-24T11:40:52.552Z,23.07
2023-03-24T11:45:10.227Z,22.58
2023-03-24T11:48:53.444Z,22.86
2023-03-24T11:53:49.317Z,22.74
2023-03-24T12:01:19.374Z,22.54
2023-03-24T12:05:42.117Z,22.80
2023-03-24T12:10:09.635Z,23.39
2023-03-24T12:14:43.831Z,23.81
2023-03-24T12:18:58.161Z,24.00
2023-03-24T12:23:12.609Z,23.66
2023-03-24T12:26:41.477Z,23.30
2023-03-24T12:30:18.428Z,23.59
2023-03-24T12:39:02.584Z,23.81
2023-03-24T12:43:21.399Z,23.84
2023-03-24T13:00:00.149Z,22.94
2023-03-24T13:03:46.889Z,22.69
2023-03-24T13:07:29.146Z,22.85
2023-03-24T13:11:04.372Z,22.71
2023-03-24T13:14:36.254Z,22.64
2023-03-24T13:19:03.885Z,22.34
2023-03-24T13:22:44.710Z,22.39
2023-03-24T13:31:03.939Z,22.71
2023-03-24T13:34:54.124Z,22.73
2023-03-24T13:39:12.279Z,22.63
2023-03-24T13:42:47.756Z,22.69
2023-03-24T13:46:59.699Z,22.45
2023-03-24T13:50:40.124Z,22.39
2023-03-24T13:54:48.432Z,22.23
2023-03-24T13:59:02.159Z,22.06
2023-03-24T14:02:52.893Z,22.00
2023-03-24T14:06:57.788Z,21.76
2023-03-24T14:10:52.076Z,21.79
2023-03-24T14:13:57.998Z,21.77
2023-03-24T14:17:56.783Z,21.84
2023-03-24T14:22:01.761Z,21.83
2023-03-24T14:30:20.532Z,21.88
2023-03-24T14:34:10.964Z,21.86
2023-03-24T14:37:32.886Z,21.86
2023-03-24T14:41:17.953Z,21.81
2023-03-24T14:44:45.130Z,21.75
2023-03-24T14:56:54.417Z,21.52
2023-03-24T15:01:07.626Z,21.35
2023-03-24T15:05:41.558Z,21.40
2023-03-24T15:09:11.026Z,21.39
2023-03-24T15:12:26.748Z,21.42
2023-03-24T15:15:53.610Z,21.51
2023-03-24T15:19:23.019Z,21.59
2023-03-24T15:22:41.843Z,21.57
2023-03-24T15:25:48.294Z,21.63
2023-03-24T15:29:24.361Z,21.61
2023-03-24T15:36:50.748Z,21.44
2023-03-24T15:40:30.366Z,21.27
2023-03-24T15:44:18.509Z,21.26
2023-03-24T15:47:29.524Z,21.11
2023-03-24T15:51:11.758Z,21.06
2023-03-24T15:54:44.979Z,20.99
2023-03-24T15:57:57.426Z,20.89
2023-03-24T16:01:43.180Z,20.97
2023-03-24T16:05:30.089Z,20.90
2023-03-24T16:09:10.934Z,20.96
2023-03-24T16:24:40.991Z,20.62
2023-03-24T16:27:49.795Z,20.46
2023-03-24T16:31:16.604Z,20.33
2023-03-24T16:34:49.756Z,20.21
2023-03-24T16:41:44.158Z,20.04
2023-03-24T16:44:56.329Z,20.15
2023-03-24T16:47:59.963Z,20.16
2023-03-24T16:51:22.252Z,20.06
2023-03-24T16:54:25.816Z,20.09
2023-03-24T16:57:47.265Z,20.06
2023-03-24T17:00:52.186Z,19.98
2023-03-24T17:04:01.027Z,19.89
2023-03-24T17:07:52.943Z,19.70
2023-03-24T17:11:05.632Z,19.75
2023-03-24T17:14:46.328Z,19.68
2023-03-24T17:17:55.830Z,19.52
2023-03-24T17:20:59.541Z,19.59
2023-03-24T17:24:42.774Z,19.50
2023-03-24T17:28:05.063Z,19.27
2023-03-24T17:31:48.164Z,19.17
2023-03-24T17:35:38.375Z,19.09
2023-03-24T17:39:33.221Z,19.10
2023-03-24T17:51:33.825Z,19.07
2023-03-24T17:59:15.416Z,18.86
2023-03-24T18:03:45.617Z,18.83
2023-03-24T18:07:04.272Z,18.90
2023-03-24T18:10:59.869Z,18.86
2023-03-24T18:14:46.772Z,18.75
2023-03-24T18:17:59.330Z,18.74
2023-03-24T18:21:19.013Z,18.66
2023-03-24T18:24:55.600Z,18.46
2023-03-24T18:28:01.977Z,18.45
2023-03-24T18:31:13.565Z,18.34
2023-03-24T18:34:44.993Z,18.09
2023-03-24T18:37:48.526Z,18.10
2023-03-24T18:41:04.011Z,18.08
2023-03-24T18:44:50.551Z,17.87
2023-03-24T18:47:54.192Z,17.66
2023-03-24T18:51:11.966Z,17.64
2023-03-24T18:54:18.526Z,17.42
2023-03-24T18:57:37.417Z,17.33
2023-03-24T19:00:52.800Z,17.19
2023-03-24T19:03:56.609Z,17.06
2023-03-24T19:07:00.831Z,16.97
2023-03-24T19:10:41.979Z,16.77
2023-03-24T19:13:50.841Z,16.69
2023-03-24T19:17:35.728Z,16.47
2023-03-24T19:20:40.677Z,16.39
2023-03-24T19:23:44.292Z,16.26
2023-03-24T19:26:48.353Z,16.10
2023-03-24T19:29:51.819Z,15.84
2023-03-24T19:32:55.121Z,15.78
2023-03-24T19:35:59.022Z,15.78
2023-03-24T19:39:02.650Z,15.72
2023-03-24T19:42:07.900Z,15.67
2023-03-24T19:45:18.519Z,15.71
2023-03-24T19:48:30.974Z,15.72
2023-03-24T19:51:40.328Z,15.71
2023-03-24T19:54:43.558Z,15.83
2023-03-24T19:57:47.083Z,15.65
2023-03-24T20:00:51.198Z,15.47
2023-03-24T20:03:55.018Z,15.48
2023-03-24T20:07:01.441Z,15.64
2023-03-24T20:10:04.940Z,15.81
2023-03-24T20:13:10.185Z,15.87
2023-03-24T20:16:13.578Z,15.76
2023-03-24T20:19:17.262Z,15.81
2023-03-24T20:22:20.952Z,15.75
2023-03-24T20:25:24.207Z,15.71
2023-03-24T20:28:30.476Z,15.64
2023-03-24T20:31:36.349Z,15.55
2023-03-24T20:34:40.821Z,15.49
2023-03-24T20:37:44.147Z,15.43
2023-03-24T20:40:48.759Z,15.47
2023-03-24T20:43:52.761Z,15.43
2023-03-24T20:46:57.325Z,15.31
2023-03-24T20:50:01.369Z,15.29
2023-03-24T20:53:05.772Z,15.26
2023-03-24T20:56:10.375Z,15.18
2023-03-24T20:59:13.868Z,15.14
2023-03-24T21:02:19.000Z,15.10
2023-03-24T21:05:22.411Z,15.05
2023-03-24T21:08:26.288Z,15.04
2023-03-24T21:11:31.424Z,14.95
2023-03-24T21:14:35.149Z,14.94
2023-03-24T21:17:38.625Z,15.04
2023-03-24T21:20:55.935Z,14.89
2023-03-24T21:23:59.035Z,14.78
2023-03-24T21:27:05.418Z,14.69
2023-03-24T21:30:10.967Z,14.68
2023-03-24T21:33:16.986Z,14.63
2023-03-24T21:36:21.667Z,14.54
2023-03-24T21:39:24.913Z,14.45
2023-03-24T21:42:30.753Z,14.49
2023-03-24T21:45:36.156Z,14.50
2023-03-24T21:48:40.866Z,14.49
2023-03-24T21:51:44.705Z,14.45
2023-03-24T21:54:48.193Z,14.51
2023-03-24T21:57:52.242Z,14.49
2023-03-24T22:00:55.541Z,14.43
2023-03-24T22:03:59.304Z,14.44
2023-03-24T22:07:06.873Z,14.48
2023-03-24T22:10:13.470Z,14.47
2023-03-24T22:13:16.721Z,14.46
2023-03-24T22:16:19.985Z,14.49
2023-03-24T22:19:23.432Z,14.51
2023-03-24T22:22:27.505Z,14.45
2023-03-24T22:25:30.980Z,14.51
2023-03-24T22:28:34.904Z,14.55
2023-03-24T22:31:42.750Z,14.56
2023-03-24T22:34:45.846Z,14.60
2023-03-24T22:37:48.826Z,14.65
2023-03-24T22:40:55.909Z,14.59
2023-03-24T22:43:59.241Z,14.69
2023-03-24T22:47:03.683Z,14.86
2023-03-24T22:50:09.717Z,14.82
2023-03-24T22:53:13.441Z,14.65
2023-03-24T22:56:16.740Z,14.62
2023-03-24T22:59:20.540Z,14.61
2023-03-24T23:02:24.882Z,14.56
2023-03-24T23:05:28.302Z,14.64
2023-03-24T23:08:37.588Z,14.67
2023-03-24T23:11:42.012Z,14.75
2023-03-24T23:14:46.653Z,14.86
2023-03-24T23:17:51.370Z,14.83
2023-03-24T23:21:16.405Z,14.91
2023-03-24T23:24:19.302Z,14.82
2023-03-24T23:27:22.552Z,14.79
2023-03-24T23:30:25.825Z,14.83
2023-03-24T23:33:29.482Z,14.87
2023-03-24T23:36:34.343Z,14.89
2023-03-24T23:39:37.420Z,14.94
2023-03-24T23:42:42.260Z,14.93
2023-03-24T23:45:46.886Z,14.95
2023-03-24T23:48:50.989Z,14.92
2023-03-24T23:51:54.129Z,14.94
2023-03-24T23:54:58.706Z,14.90
2023-03-24T23:58:02.066Z,15.01
